sensor_id;sensor_type;location;lat;lon;timestamp;P1;P2;P0
46381;PMS5003;66809;52.974;-2.514;2023-06-14T00:00:22;29.575;29.025;
46381;PMS5003;66809;52.974;-2.514;2023-06-14T00:02:22;28.857142857142858;28.166666666666668;
46381;PMS5003;66809;52.974;-2.514;2023-06-14T00:04:22;28.09090909090909;27.40909090909091;
46381;PMS5003;66809;52.974;-2.514;2023-06-14T00:06:22;27.369565217391305;26.695652173913043;
46381;PMS5003;66809;52.974;-2.514;2023-06-14T00:08:22;26.916666666666668;26.270833333333332;
46381;PMS5003;66809;52.974;-2.514;2023-06-14T00:10:22;26.38;25.74;
46381;PMS5003;66809;52.974;-2.514;2023-06-14T00:12:22;25.923076923076923;25.307692307692307;
46381;PMS5003;66809;52.974;-2.514;2023-06-14T00:14:22;25.48148148148148;24.85185185185185;
46381;PMS5003;66809;52.974;-2.514;2023-06-14T00:16:22;25.035714285714285;24.375;
46381;PMS5003;66809;52.974;-2.514;2023-06-14T00:18:22;24.655172413793103;23.96551724137931;
46381;PMS5003;66809;52.974;-2.514;2023-06-14T00:20:22;24.283333333333335;23.566666666666666;
46381;PMS5003;66809;52.974;-2.514;2023-06-14T00:22:21;24.716666666666665;23.983333333333334;
46381;PMS5003;66809;52.974;-2.514;2023-06-14T00:24:22;24.716666666666665;23.933333333333334;
46381;PMS5003;66809;52.974;-2.514;2023-06-14T00:26:22;24.816666666666666;24.0;
46381;PMS5003;66809;52.974;-2.514;2023-06-14T00:28:22;24.883333333333333;24.066666666666666;
46381;PMS5003;66809;52.974;-2.514;2023-06-14T00:30:23;24.95;24.116666666666667;
46381;PMS5003;66809;52.974;-2.514;2023-06-14T00:32:22;25.016666666666666;24.15;
46381;PMS5003;66809;52.974;-2.514;2023-06-14T00:34:22;24.25;23.4;
46381;PMS5003;66809;52.974;-2.514;2023-06-14T00:36:22;23.85;22.966666666666665;
46381;PMS5003;66809;52.974;-2.514;2023-06-14T00:38:22;23.6;22.633333333333333;
46381;PMS5003;66809;52.974;-2.514;2023-06-14T00:40:22;23.3;22.333333333333332;
46381;PMS5003;66809;52.974;-2.514;2023-06-14T00:42:23;22.666666666666668;21.716666666666665;
46381;PMS5003;66809;52.974;-2.514;2023-06-14T00:44:22;22.033333333333335;21.033333333333335;
46381;PMS5003;66809;52.974;-2.514;2023-06-14T00:46:22;21.383333333333333;20.433333333333334;
46381;PMS5003;66809;52.974;-2.514;2023-06-14T00:48:22;20.8;19.866666666666667;
46381;PMS5003;66809;52.974;-2.514;2023-06-14T00:50:22;20.033333333333335;19.116666666666667;
46381;PMS5003;66809;52.974;-2.514;2023-06-14T00:52:22;19.116666666666667;18.216666666666665;
46381;PMS5003;66809;52.974;-2.514;2023-06-14T00:54:22;17.6;16.666666666666668;
46381;PMS5003;66809;52.974;-2.514;2023-06-14T00:56:22;15.866666666666667;14.883333333333333;
46381;PMS5003;66809;52.974;-2.514;2023-06-14T00:58:22;15.016666666666667;14.033333333333333;
46381;PMS5003;66809;52.974;-2.514;2023-06-14T01:00:22;15.133333333333333;14.05;
46381;PMS5003;66809;52.974;-2.514;2023-06-14T01:02:22;15.083333333333334;14.116666666666667;
46381;PMS5003;66809;52.974;-2.514;2023-06-14T01:04:22;15.183333333333334;14.183333333333334;
46381;PMS5003;66809;52.974;-2.514;2023-06-14T01:06:23;15.45;14.466666666666667;
46381;PMS5003;66809;52.974;-2.514;2023-06-14T01:08:24;15.45;14.433333333333334;
46381;PMS5003;66809;52.974;-2.514;2023-06-14T01:10:27;15.5;14.45;
46381;PMS5003;66809;52.974;-2.514;2023-06-14T01:12:24;15.466666666666667;14.35;
46381;PMS5003;66809;52.974;-2.514;2023-06-14T01:14:22;15.4;14.283333333333333;
46381;PMS5003;66809;52.974;-2.514;2023-06-14T01:16:22;15.4;14.266666666666667;
46381;PMS5003;66809;52.974;-2.514;2023-06-14T01:18:22;15.333333333333334;14.216666666666667;
46381;PMS5003;66809;52.974;-2.514;2023-06-14T01:20:22;15.333333333333334;14.166666666666666;
46381;PMS5003;66809;52.974;-2.514;2023-06-14T01:22:22;15.25;14.066666666666666;
46381;PMS5003;66809;52.974;-2.514;2023-06-14T01:24:22;15.033333333333333;13.866666666666667;
46381;PMS5003;66809;52.974;-2.514;2023-06-14T01:26:22;14.966666666666667;13.783333333333333;
46381;PMS5003;66809;52.974;-2.514;2023-06-14T01:28:22;14.783333333333333;13.583333333333334;
46381;PMS5003;66809;52.974;-2.514;2023-06-14T01:30:22;14.783333333333333;13.583333333333334;
46381;PMS5003;66809;52.974;-2.514;2023-06-14T01:32:22;14.7;13.533333333333333;
46381;PMS5003;66809;52.974;-2.514;2023-06-14T01:34:22;14.633333333333333;13.383333333333333;
46381;PMS5003;66809;52.974;-2.514;2023-06-14T01:36:22;14.283333333333333;13.083333333333334;
46381;PMS5003;66809;52.974;-2.514;2023-06-14T01:38:22;13.933333333333334;12.783333333333333;
46381;PMS5003;66809;52.974;-2.514;2023-06-14T01:40:22;13.533333333333333;12.383333333333333;
46381;PMS5003;66809;52.974;-2.514;2023-06-14T01:42:22;13.316666666666666;12.183333333333334;
46381;PMS5003;66809;52.974;-2.514;2023-06-14T01:44:23;13.066666666666666;11.966666666666667;
46381;PMS5003;66809;52.974;-2.514;2023-06-14T01:46:22;12.783333333333333;11.716666666666667;
46381;PMS5003;66809;52.974;-2.514;2023-06-14T01:48:22;12.566666666666666;11.516666666666667;
46381;PMS5003;66809;52.974;-2.514;2023-06-14T01:50:22;12.3;11.266666666666667;
46381;PMS5003;66809;52.974;-2.514;2023-06-14T01:52:22;11.966666666666667;10.933333333333334;
46381;PMS5003;66809;52.974;-2.514;2023-06-14T01:54:22;11.866666666666667;10.816666666666666;
46381;PMS5003;66809;52.974;-2.514;2023-06-14T01:56:22;11.8;10.766666666666667;
46381;PMS5003;66809;52.974;-2.514;2023-06-14T01:58:22;11.716666666666667;10.683333333333334;
46381;PMS5003;66809;52.974;-2.514;2023-06-14T02:00:22;11.483333333333333;10.566666666666666;
46381;PMS5003;66809;52.974;-2.514;2023-06-14T02:02:21;11.416666666666666;10.5;
46381;PMS5003;66809;52.974;-2.514;2023-06-14T02:04:22;11.166666666666666;10.266666666666667;
46381;PMS5003;66809;52.974;-2.514;2023-06-14T02:06:22;10.816666666666666;9.9;
46381;PMS5003;66809;52.974;-2.514;2023-06-14T02:08:22;10.55;9.666666666666666;
46381;PMS5003;66809;52.974;-2.514;2023-06-14T02:10:22;10.3;9.466666666666667;
46381;PMS5003;66809;52.974;-2.514;2023-06-14T02:12:22;10.116666666666667;9.35;
46381;PMS5003;66809;52.974;-2.514;2023-06-14T02:14:22;10.033333333333333;9.266666666666667;
46381;PMS5003;66809;52.974;-2.514;2023-06-14T02:16:22;9.883333333333333;9.15;
46381;PMS5003;66809;52.974;-2.514;2023-06-14T02:18:23;9.833333333333334;9.083333333333334;
46381;PMS5003;66809;52.974;-2.514;2023-06-14T02:20:22;9.733333333333333;9.066666666666666;
46381;PMS5003;66809;52.974;-2.514;2023-06-14T02:22:22;9.716666666666667;9.083333333333334;
46381;PMS5003;66809;52.974;-2.514;2023-06-14T02:24:22;9.8;9.183333333333334;
46381;PMS5003;66809;52.974;-2.514;2023-06-14T02:26:22;9.7;9.083333333333334;
46381;PMS5003;66809;52.974;-2.514;2023-06-14T02:28:22;9.75;9.15;
46381;PMS5003;66809;52.974;-2.514;2023-06-14T02:30:23;9.766666666666667;9.15;
46381;PMS5003;66809;52.974;-2.514;2023-06-14T02:32:22;9.9;9.216666666666667;
46381;PMS5003;66809;52.974;-2.514;2023-06-14T02:34:22;9.866666666666667;9.25;
46381;PMS5003;66809;52.974;-2.514;2023-06-14T02:36:21;9.95;9.266666666666667;
46381;PMS5003;66809;52.974;-2.514;2023-06-14T02:38:23;10.016666666666667;9.35;
46381;PMS5003;66809;52.974;-2.514;2023-06-14T02:40:23;10.083333333333334;9.4;
46381;PMS5003;66809;52.974;-2.514;2023-06-14T02:42:22;10.05;9.366666666666667;
46381;PMS5003;66809;52.974;-2.514;2023-06-14T02:44:24;10.033333333333333;9.383333333333333;
46381;PMS5003;66809;52.974;-2.514;2023-06-14T02:46:22;10.033333333333333;9.383333333333333;
46381;PMS5003;66809;52.974;-2.514;2023-06-14T02:48:22;10.05;9.383333333333333;
46381;PMS5003;66809;52.974;-2.514;2023-06-14T02:50:22;10.05;9.383333333333333;
46381;PMS5003;66809;52.974;-2.514;2023-06-14T02:52:22;10.1;9.433333333333334;
46381;PMS5003;66809;52.974;-2.514;2023-06-14T02:54:22;10.116666666666667;9.466666666666667;
46381;PMS5003;66809;52.974;-2.514;2023-06-14T02:56:22;10.133333333333333;9.483333333333333;
46381;PMS5003;66809;52.974;-2.514;2023-06-14T02:58:22;10.066666666666666;9.433333333333334;
46381;PMS5003;66809;52.974;-2.514;2023-06-14T03:00:22;10.116666666666667;9.5;
46381;PMS5003;66809;52.974;-2.514;2023-06-14T03:02:22;10.116666666666667;9.45;
46381;PMS5003;66809;52.974;-2.514;2023-06-14T03:04:22;10.233333333333333;9.6;
46381;PMS5003;66809;52.974;-2.514;2023-06-14T03:06:22;10.35;9.7;
46381;PMS5003;66809;52.974;-2.514;2023-06-14T03:08:23;10.45;9.8;
46381;PMS5003;66809;52.974;-2.514;2023-06-14T03:10:22;10.583333333333334;9.9;
46381;PMS5003;66809;52.974;-2.514;2023-06-14T03:12:22;10.7;9.983333333333333;
46381;PMS5003;66809;52.974;-2.514;2023-06-14T03:14:22;10.65;9.966666666666667;
46381;PMS5003;66809;52.974;-2.514;2023-06-14T03:16:22;10.716666666666667;10.066666666666666;
46381;PMS5003;66809;52.974;-2.514;2023-06-14T03:18:22;10.7;10.1;
46381;PMS5003;66809;52.974;-2.514;2023-06-14T03:20:22;10.716666666666667;10.1;
46381;PMS5003;66809;52.974;-2.514;2023-06-14T03:22:22;10.85;10.233333333333333;
46381;PMS5003;66809;52.974;-2.514;2023-06-14T03:24:22;10.85;10.25;
46381;PMS5003;66809;52.974;-2.514;2023-06-14T03:26:21;10.85;10.3;
46381;PMS5003;66809;52.974;-2.514;2023-06-14T03:28:22;10.883333333333333;10.316666666666666;
46381;PMS5003;66809;52.974;-2.514;2023-06-14T03:30:22;10.85;10.25;
46381;PMS5003;66809;52.974;-2.514;2023-06-14T03:32:22;10.716666666666667;10.15;
46381;PMS5003;66809;52.974;-2.514;2023-06-14T03:34:22;10.75;10.166666666666666;
46381;PMS5003;66809;52.974;-2.514;2023-06-14T03:36:22;10.65;10.133333333333333;
46381;PMS5003;66809;52.974;-2.514;2023-06-14T03:38:22;10.566666666666666;10.033333333333333;
46381;PMS5003;66809;52.974;-2.514;2023-06-14T03:40:22;10.666666666666666;10.1;
46381;PMS5003;66809;52.974;-2.514;2023-06-14T03:42:21;10.8;10.166666666666666;
46381;PMS5003;66809;52.974;-2.514;2023-06-14T03:44:22;10.883333333333333;10.133333333333333;
46381;PMS5003;66809;52.974;-2.514;2023-06-14T03:46:22;10.916666666666666;10.166666666666666;
46381;PMS5003;66809;52.974;-2.514;2023-06-14T03:48:22;10.866666666666667;10.133333333333333;
46381;PMS5003;66809;52.974;-2.514;2023-06-14T03:50:22;10.983333333333333;10.183333333333334;
46381;PMS5003;66809;52.974;-2.514;2023-06-14T03:52:22;11.133333333333333;10.283333333333333;
46381;PMS5003;66809;52.974;-2.514;2023-06-14T03:54:22;11.183333333333334;10.35;
46381;PMS5003;66809;52.974;-2.514;2023-06-14T03:56:22;11.2;10.35;
46381;PMS5003;66809;52.974;-2.514;2023-06-14T03:58:22;11.35;10.466666666666667;
46381;PMS5003;66809;52.974;-2.514;2023-06-14T04:00:22;11.4;10.433333333333334;
46381;PMS5003;66809;52.974;-2.514;2023-06-14T04:02:22;11.466666666666667;10.516666666666667;
46381;PMS5003;66809;52.974;-2.514;2023-06-14T04:04:22;11.5;10.55;
46381;PMS5003;66809;52.974;-2.514;2023-06-14T04:06:22;11.6;10.633333333333333;
46381;PMS5003;66809;52.974;-2.514;2023-06-14T04:08:22;11.6;10.633333333333333;
46381;PMS5003;66809;52.974;-2.514;2023-06-14T04:10:23;11.65;10.716666666666667;
46381;PMS5003;66809;52.974;-2.514;2023-06-14T04:12:22;11.683333333333334;10.75;
46381;PMS5003;66809;52.974;-2.514;2023-06-14T04:14:22;11.783333333333333;10.85;
46381;PMS5003;66809;52.974;-2.514;2023-06-14T04:16:22;11.933333333333334;10.916666666666666;
46381;PMS5003;66809;52.974;-2.514;2023-06-14T04:18:22;12.033333333333333;11.0;
46381;PMS5003;66809;52.974;-2.514;2023-06-14T04:20:22;12.15;11.1;
46381;PMS5003;66809;52.974;-2.514;2023-06-14T04:22:22;12.1;11.033333333333333;
46381;PMS5003;66809;52.974;-2.514;2023-06-14T04:24:22;12.15;11.05;
46381;PMS5003;66809;52.974;-2.514;2023-06-14T04:26:22;12.2;11.05;
46381;PMS5003;66809;52.974;-2.514;2023-06-14T04:28:22;12.216666666666667;11.033333333333333;
46381;PMS5003;66809;52.974;-2.514;2023-06-14T04:30:22;12.25;11.083333333333334;
46381;PMS5003;66809;52.974;-2.514;2023-06-14T04:32:23;12.333333333333334;11.15;
46381;PMS5003;66809;52.974;-2.514;2023-06-14T04:34:22;12.35;11.166666666666666;
46381;PMS5003;66809;52.974;-2.514;2023-06-14T04:36:22;12.516666666666667;11.316666666666666;
46381;PMS5003;66809;52.974;-2.514;2023-06-14T04:38:22;12.633333333333333;11.466666666666667;
46381;PMS5003;66809;52.974;-2.514;2023-06-14T04:40:22;12.65;11.483333333333333;
46381;PMS5003;66809;52.974;-2.514;2023-06-14T04:42:22;12.566666666666666;11.433333333333334;
46381;PMS5003;66809;52.974;-2.514;2023-06-14T04:44:22;12.533333333333333;11.483333333333333;
46381;PMS5003;66809;52.974;-2.514;2023-06-14T04:46:22;12.533333333333333;11.483333333333333;
46381;PMS5003;66809;52.974;-2.514;2023-06-14T04:48:22;12.6;11.516666666666667;
46381;PMS5003;66809;52.974;-2.514;2023-06-14T04:50:22;12.583333333333334;11.55;
46381;PMS5003;66809;52.974;-2.514;2023-06-14T04:52:22;12.466666666666667;11.483333333333333;
46381;PMS5003;66809;52.974;-2.514;2023-06-14T04:54:22;12.333333333333334;11.35;
46381;PMS5003;66809;52.974;-2.514;2023-06-14T04:56:23;12.25;11.3;
46381;PMS5003;66809;52.974;-2.514;2023-06-14T04:58:22;12.15;11.216666666666667;
46381;PMS5003;66809;52.974;-2.514;2023-06-14T05:00:22;12.2;11.283333333333333;
46381;PMS5003;66809;52.974;-2.514;2023-06-14T05:02:22;12.083333333333334;11.2;
46381;PMS5003;66809;52.974;-2.514;2023-06-14T05:04:22;11.966666666666667;11.033333333333333;
46381;PMS5003;66809;52.974;-2.514;2023-06-14T05:06:22;11.75;10.8;
46381;PMS5003;66809;52.974;-2.514;2023-06-14T05:08:22;11.7;10.733333333333333;
46381;PMS5003;66809;52.974;-2.514;2023-06-14T05:10:22;11.583333333333334;10.616666666666667;
46381;PMS5003;66809;52.974;-2.514;2023-06-14T05:12:22;11.533333333333333;10.583333333333334;
46381;PMS5003;66809;52.974;-2.514;2023-06-14T05:14:22;11.45;10.483333333333333;
46381;PMS5003;66809;52.974;-2.514;2023-06-14T05:16:22;11.216666666666667;10.333333333333334;
46381;PMS5003;66809;52.974;-2.514;2023-06-14T05:18:22;11.15;10.266666666666667;
46381;PMS5003;66809;52.974;-2.514;2023-06-14T05:20:22;11.0;10.15;
46381;PMS5003;66809;52.974;-2.514;2023-06-14T05:22:22;11.016666666666667;10.15;
46381;PMS5003;66809;52.974;-2.514;2023-06-14T05:24:22;10.9;10.05;
46381;PMS5003;66809;52.974;-2.514;2023-06-14T05:26:22;10.916666666666666;10.05;
46381;PMS5003;66809;52.974;-2.514;2023-06-14T05:28:22;10.95;10.083333333333334;
46381;PMS5003;66809;52.974;-2.514;2023-06-14T05:30:22;10.9;10.05;
46381;PMS5003;66809;52.974;-2.514;2023-06-14T05:32:22;10.9;10.1;
46381;PMS5003;66809;52.974;-2.514;2023-06-14T05:34:22;10.85;10.066666666666666;
46381;PMS5003;66809;52.974;-2.514;2023-06-14T05:36:22;10.8;10.033333333333333;
46381;PMS5003;66809;52.974;-2.514;2023-06-14T05:38:22;10.766666666666667;10.0;
46381;PMS5003;66809;52.974;-2.514;2023-06-14T05:40:22;10.7;9.966666666666667;
46381;PMS5003;66809;52.974;-2.514;2023-06-14T05:42:22;10.666666666666666;9.966666666666667;
46381;PMS5003;66809;52.974;-2.514;2023-06-14T05:44:22;10.616666666666667;9.933333333333334;
46381;PMS5003;66809;52.974;-2.514;2023-06-14T05:46:23;10.55;9.866666666666667;
46381;PMS5003;66809;52.974;-2.514;2023-06-14T05:48:22;10.483333333333333;9.833333333333334;
46381;PMS5003;66809;52.974;-2.514;2023-06-14T05:50:21;10.433333333333334;9.8;
46381;PMS5003;66809;52.974;-2.514;2023-06-14T05:52:23;10.533333333333333;9.883333333333333;
46381;PMS5003;66809;52.974;-2.514;2023-06-14T05:54:22;10.7;10.05;
46381;PMS5003;66809;52.974;-2.514;2023-06-14T05:56:22;10.766666666666667;10.083333333333334;
46381;PMS5003;66809;52.974;-2.514;2023-06-14T05:58:22;10.8;10.066666666666666;
46381;PMS5003;66809;52.974;-2.514;2023-06-14T06:00:22;10.716666666666667;10.05;
46381;PMS5003;66809;52.974;-2.514;2023-06-14T06:02:22;10.916666666666666;10.166666666666666;
46381;PMS5003;66809;52.974;-2.514;2023-06-14T06:04:22;10.95;10.25;
46381;PMS5003;66809;52.974;-2.514;2023-06-14T06:06:22;11.016666666666667;10.383333333333333;
46381;PMS5003;66809;52.974;-2.514;2023-06-14T06:08:22;11.233333333333333;10.566666666666666;
46381;PMS5003;66809;52.974;-2.514;2023-06-14T06:10:22;11.333333333333334;10.616666666666667;
46381;PMS5003;66809;52.974;-2.514;2023-06-14T06:12:22;11.366666666666667;10.65;
46381;PMS5003;66809;52.974;-2.514;2023-06-14T06:14:22;11.516666666666667;10.816666666666666;
46381;PMS5003;66809;52.974;-2.514;2023-06-14T06:16:22;11.616666666666667;10.9;
46381;PMS5003;66809;52.974;-2.514;2023-06-14T06:18:22;11.566666666666666;10.866666666666667;
46381;PMS5003;66809;52.974;-2.514;2023-06-14T06:20:22;11.616666666666667;10.916666666666666;
46381;PMS5003;66809;52.974;-2.514;2023-06-14T06:22:22;11.533333333333333;10.866666666666667;
46381;PMS5003;66809;52.974;-2.514;2023-06-14T06:24:22;11.616666666666667;10.933333333333334;
46381;PMS5003;66809;52.974;-2.514;2023-06-14T06:26:22;11.583333333333334;10.95;
46381;PMS5003;66809;52.974;-2.514;2023-06-14T06:28:22;11.55;10.966666666666667;
46381;PMS5003;66809;52.974;-2.514;2023-06-14T06:30:22;11.516666666666667;10.95;
46381;PMS5003;66809;52.974;-2.514;2023-06-14T06:32:22;11.633333333333333;11.033333333333333;
46381;PMS5003;66809;52.974;-2.514;2023-06-14T06:34:22;11.716666666666667;11.133333333333333;
46381;PMS5003;66809;52.974;-2.514;2023-06-14T06:36:22;11.7;11.116666666666667;
46381;PMS5003;66809;52.974;-2.514;2023-06-14T06:38:22;11.666666666666666;11.033333333333333;
46381;PMS5003;66809;52.974;-2.514;2023-06-14T06:40:22;11.7;11.05;
46381;PMS5003;66809;52.974;-2.514;2023-06-14T06:42:22;11.683333333333334;11.016666666666667;
46381;PMS5003;66809;52.974;-2.514;2023-06-14T06:44:22;11.733333333333333;11.066666666666666;
46381;PMS5003;66809;52.974;-2.514;2023-06-14T06:46:22;11.766666666666667;11.066666666666666;
46381;PMS5003;66809;52.974;-2.514;2023-06-14T06:48:21;11.866666666666667;11.183333333333334;
46381;PMS5003;66809;52.974;-2.514;2023-06-14T06:50:22;11.816666666666666;11.116666666666667;
46381;PMS5003;66809;52.974;-2.514;2023-06-14T06:52:22;11.7;11.033333333333333;
46381;PMS5003;66809;52.974;-2.514;2023-06-14T06:54:22;11.766666666666667;11.05;
46381;PMS5003;66809;52.974;-2.514;2023-06-14T06:56:22;11.933333333333334;11.2;
46381;PMS5003;66809;52.974;-2.514;2023-06-14T06:58:22;12.116666666666667;11.383333333333333;
46381;PMS5003;66809;52.974;-2.514;2023-06-14T07:00:22;12.216666666666667;11.45;
46381;PMS5003;66809;52.974;-2.514;2023-06-14T07:02:22;12.083333333333334;11.383333333333333;
46381;PMS5003;66809;52.974;-2.514;2023-06-14T07:04:22;12.266666666666667;11.516666666666667;
46381;PMS5003;66809;52.974;-2.514;2023-06-14T07:06:22;12.316666666666666;11.516666666666667;
46381;PMS5003;66809;52.974;-2.514;2023-06-14T07:08:22;12.1;11.35;
46381;PMS5003;66809;52.974;-2.514;2023-06-14T07:10:22;12.2;11.45;
46381;PMS5003;66809;52.974;-2.514;2023-06-14T07:12:22;12.166666666666666;11.433333333333334;
46381;PMS5003;66809;52.974;-2.514;2023-06-14T07:14:22;12.183333333333334;11.416666666666666;
46381;PMS5003;66809;52.974;-2.514;2023-06-14T07:16:22;12.216666666666667;11.416666666666666;
46381;PMS5003;66809;52.974;-2.514;2023-06-14T07:18:22;12.233333333333333;11.433333333333334;
46381;PMS5003;66809;52.974;-2.514;2023-06-14T07:20:22;12.3;11.45;
46381;PMS5003;66809;52.974;-2.514;2023-06-14T07:22:22;12.3;11.4;
46381;PMS5003;66809;52.974;-2.514;2023-06-14T07:24:22;12.15;11.283333333333333;
46381;PMS5003;66809;52.974;-2.514;2023-06-14T07:26:22;12.133333333333333;11.266666666666667;
46381;PMS5003;66809;52.974;-2.514;2023-06-14T07:28:22;12.1;11.216666666666667;
46381;PMS5003;66809;52.974;-2.514;2023-06-14T07:30:22;12.233333333333333;11.333333333333334;
46381;PMS5003;66809;52.974;-2.514;2023-06-14T07:32:22;12.15;11.266666666666667;
46381;PMS5003;66809;52.974;-2.514;2023-06-14T07:34:22;12.066666666666666;11.183333333333334;
46381;PMS5003;66809;52.974;-2.514;2023-06-14T07:36:22;12.116666666666667;11.2;
46381;PMS5003;66809;52.974;-2.514;2023-06-14T07:38:22;12.066666666666666;11.183333333333334;
46381;PMS5003;66809;52.974;-2.514;2023-06-14T07:40:22;12.033333333333333;11.166666666666666;
46381;PMS5003;66809;52.974;-2.514;2023-06-14T07:42:21;12.333333333333334;11.35;
46381;PMS5003;66809;52.974;-2.514;2023-06-14T07:44:22;12.233333333333333;11.266666666666667;
46381;PMS5003;66809;52.974;-2.514;2023-06-14T07:46:22;12.2;11.283333333333333;
46381;PMS5003;66809;52.974;-2.514;2023-06-14T07:48:22;12.25;11.333333333333334;
46381;PMS5003;66809;52.974;-2.514;2023-06-14T07:50:22;12.333333333333334;11.383333333333333;
46381;PMS5003;66809;52.974;-2.514;2023-06-14T07:52:22;12.433333333333334;11.45;
46381;PMS5003;66809;52.974;-2.514;2023-06-14T07:54:22;12.4;11.433333333333334;
46381;PMS5003;66809;52.974;-2.514;2023-06-14T07:56:22;12.166666666666666;11.266666666666667;
46381;PMS5003;66809;52.974;-2.514;2023-06-14T07:58:22;11.966666666666667;11.133333333333333;
46381;PMS5003;66809;52.974;-2.514;2023-06-14T08:00:22;11.85;11.05;
46381;PMS5003;66809;52.974;-2.514;2023-06-14T08:02:22;11.95;11.133333333333333;
46381;PMS5003;66809;52.974;-2.514;2023-06-14T08:04:22;11.85;11.0;
46381;PMS5003;66809;52.974;-2.514;2023-06-14T08:06:22;11.783333333333333;10.983333333333333;
46381;PMS5003;66809;52.974;-2.514;2023-06-14T08:08:22;11.783333333333333;10.983333333333333;
46381;PMS5003;66809;52.974;-2.514;2023-06-14T08:10:23;11.666666666666666;10.916666666666666;
46381;PMS5003;66809;52.974;-2.514;2023-06-14T08:12:22;11.666666666666666;10.866666666666667;
46381;PMS5003;66809;52.974;-2.514;2023-06-14T08:14:22;11.583333333333334;10.816666666666666;
46381;PMS5003;66809;52.974;-2.514;2023-06-14T08:16:22;11.483333333333333;10.75;
46381;PMS5003;66809;52.974;-2.514;2023-06-14T08:18:22;11.416666666666666;10.683333333333334;
46381;PMS5003;66809;52.974;-2.514;2023-06-14T08:20:22;11.333333333333334;10.65;
46381;PMS5003;66809;52.974;-2.514;2023-06-14T08:22:22;11.333333333333334;10.666666666666666;
46381;PMS5003;66809;52.974;-2.514;2023-06-14T08:24:22;11.433333333333334;10.75;
46381;PMS5003;66809;52.974;-2.514;2023-06-14T08:26:22;11.383333333333333;10.666666666666666;
46381;PMS5003;66809;52.974;-2.514;2023-06-14T08:28:23;11.35;10.65;
46381;PMS5003;66809;52.974;-2.514;2023-06-14T08:30:22;11.283333333333333;10.583333333333334;
46381;PMS5003;66809;52.974;-2.514;2023-06-14T08:32:22;11.25;10.55;
46381;PMS5003;66809;52.974;-2.514;2023-06-14T08:34:22;11.266666666666667;10.516666666666667;
46381;PMS5003;66809;52.974;-2.514;2023-06-14T08:36:22;11.25;10.533333333333333;
46381;PMS5003;66809;52.974;-2.514;2023-06-14T08:38:22;11.316666666666666;10.583333333333334;
46381;PMS5003;66809;52.974;-2.514;2023-06-14T08:40:22;11.25;10.516666666666667;
46381;PMS5003;66809;52.974;-2.514;2023-06-14T08:42:22;10.95;10.333333333333334;
46381;PMS5003;66809;52.974;-2.514;2023-06-14T08:44:22;11.016666666666667;10.4;
46381;PMS5003;66809;52.974;-2.514;2023-06-14T08:46:22;11.1;10.416666666666666;
46381;PMS5003;66809;52.974;-2.514;2023-06-14T08:48:22;10.983333333333333;10.266666666666667;
46381;PMS5003;66809;52.974;-2.514;2023-06-14T08:50:22;10.916666666666666;10.25;
46381;PMS5003;66809;52.974;-2.514;2023-06-14T08:52:22;10.916666666666666;10.283333333333333;
46381;PMS5003;66809;52.974;-2.514;2023-06-14T08:54:22;10.9;10.233333333333333;
46381;PMS5003;66809;52.974;-2.514;2023-06-14T08:56:22;10.966666666666667;10.266666666666667;
46381;PMS5003;66809;52.974;-2.514;2023-06-14T08:58:22;10.916666666666666;10.183333333333334;
46381;PMS5003;66809;52.974;-2.514;2023-06-14T09:00:22;10.9;10.15;
46381;PMS5003;66809;52.974;-2.514;2023-06-14T09:02:22;10.783333333333333;10.0;
46381;PMS5003;66809;52.974;-2.514;2023-06-14T09:04:22;10.666666666666666;9.95;
46381;PMS5003;66809;52.974;-2.514;2023-06-14T09:06:23;10.583333333333334;9.866666666666667;
46381;PMS5003;66809;52.974;-2.514;2023-06-14T09:08:22;10.6;9.833333333333334;
46381;PMS5003;66809;52.974;-2.514;2023-06-14T09:10:22;10.566666666666666;9.766666666666667;
46381;PMS5003;66809;52.974;-2.514;2023-06-14T09:12:22;10.516666666666667;9.75;
46381;PMS5003;66809;52.974;-2.514;2023-06-14T09:14:23;10.55;9.766666666666667;
46381;PMS5003;66809;52.974;-2.514;2023-06-14T09:16:22;10.566666666666666;9.783333333333333;
46381;PMS5003;66809;52.974;-2.514;2023-06-14T09:18:22;10.55;9.766666666666667;
46381;PMS5003;66809;52.974;-2.514;2023-06-14T09:20:23;10.433333333333334;9.666666666666666;
46381;PMS5003;66809;52.974;-2.514;2023-06-14T09:22:22;10.383333333333333;9.633333333333333;
46381;PMS5003;66809;52.974;-2.514;2023-06-14T09:24:23;10.366666666666667;9.566666666666666;
46381;PMS5003;66809;52.974;-2.514;2023-06-14T09:26:22;10.45;9.666666666666666;
46381;PMS5003;66809;52.974;-2.514;2023-06-14T09:28:26;10.433333333333334;9.6;